Time;durP1;ratioP1;P1;durP2;ratioP2;P2;SDS_P1;SDS_P2;PMS_P1;PMS_P2;Temp;Humidity;BMP_temperature;BMP_pressure;BME280_temperature;BME280_humidity;BME280_pressure;Samples;Min_cycle;Max_cycle;Signal;HPM_P1;HPM_P2
2022/05/24 00:01:03;;;;;;;8.25;3.80;;;;;;;;;;4972575;28;20019;-70
2022/05/24 00:03:31;;;;;;;7.03;3.67;;;;;;;;;;4974123;28;20038;-70
2022/05/24 00:05:58;;;;;;;8.18;4.78;;;;;;;;;;4972318;28;20100;-70
2022/05/24 00:08:25;;;;;;;6.82;4.07;;;;;;;;;;4973955;28;20034;-70
2022/05/24 00:10:53;;;;;;;7.03;4.40;;;;;;;;;;4972405;28;20105;-70
2022/05/24 00:13:20;;;;;;;9.00;4.18;;;;;;;;;;4973692;28;20030;-71
2022/05/24 00:15:47;;;;;;;9.27;4.28;;;;;;;;;;4972399;28;20089;-69
2022/05/24 00:18:19;;;;;;;8.05;3.75;;;;;;;;;;4973715;28;20126;-70
2022/05/24 00:20:48;;;;;;;6.07;3.88;;;;;;;;;;4972320;28;20109;-70
2022/05/24 00:23:16;;;;;;;7.97;3.92;;;;;;;;;;4972402;28;20029;-70
2022/05/24 00:25:44;;;;;;;8.35;4.18;;;;;;;;;;4973626;28;20103;-70
2022/05/24 00:28:12;;;;;;;6.60;4.18;;;;;;;;;;4973875;28;20058;-70
2022/05/24 00:30:40;;;;;;;8.40;4.28;;;;;;;;;;4973594;28;20031;-68
2022/05/24 00:33:07;;;;;;;9.48;4.03;;;;;;;;;;4972136;28;20029;-69
2022/05/24 00:35:34;;;;;;;7.45;4.28;;;;;;;;;;4973723;28;20042;-69
2022/05/24 00:38:02;;;;;;;9.75;3.88;;;;;;;;;;4972128;28;20114;-70
2022/05/24 00:40:47;;;;;;;6.50;3.63;;;;;;;;;;4973536;28;20488;-70
2022/05/24 00:43:30;;;;;;;5.28;3.22;;;;;;;;;;4973444;28;20026;-70
2022/05/24 00:46:02;;;;;;;9.20;3.97;;;;;;;;;;4976840;28;20109;-69
2022/05/24 00:48:36;;;;;;;5.18;3.47;;;;;;;;;;4977314;28;20034;-70
2022/05/24 00:51:04;;;;;;;7.40;3.03;;;;;;;;;;4977207;28;20031;-69
2022/05/24 00:53:42;;;;;;;5.35;2.88;;;;;;;;;;4975476;28;20086;-70
2022/05/24 00:56:14;;;;;;;5.95;2.28;;;;;;;;;;4977177;28;20023;-68
2022/05/24 00:58:45;;;;;;;8.57;3.13;;;;;;;;;;4975493;28;20026;-70
2022/05/24 01:01:31;;;;;;;4.82;2.70;;;;;;;;;;4975643;28;20061;-70
2022/05/24 01:03:58;;;;;;;5.82;3.38;;;;;;;;;;4976910;28;20341;-69
2022/05/24 01:06:25;;;;;;;4.45;2.90;;;;;;;;;;4977099;28;20027;-69
2022/05/24 01:08:53;;;;;;;5.65;2.95;;;;;;;;;;4977045;28;20450;-68
2022/05/24 01:11:22;;;;;;;5.10;2.63;;;;;;;;;;4976819;28;20052;-68
2022/05/24 01:13:50;;;;;;;5.93;2.55;;;;;;;;;;4976516;28;20035;-70
2022/05/24 01:16:18;;;;;;;4.72;2.03;;;;;;;;;;4976578;28;20092;-70
2022/05/24 01:18:45;;;;;;;7.40;3.13;;;;;;;;;;4976538;28;20491;-70
2022/05/24 01:21:14;;;;;;;4.85;2.90;;;;;;;;;;4976670;28;20027;-69
2022/05/24 01:23:41;;;;;;;6.20;2.45;;;;;;;;;;4975309;28;20372;-69
2022/05/24 01:26:08;;;;;;;7.35;2.40;;;;;;;;;;4976768;28;20031;-70
2022/05/24 01:28:41;;;;;;;5.53;2.67;;;;;;;;;;4976551;28;20030;-69
2022/05/24 01:31:08;;;;;;;7.07;2.78;;;;;;;;;;4976639;28;20039;-70
2022/05/24 01:36:22;;;;;;;5.70;2.95;;;;;;;;;;4976553;28;20115;-69
2022/05/24 01:38:51;;;;;;;5.40;3.25;;;;;;;;;;4976176;28;20031;-69
2022/05/24 01:41:20;;;;;;;5.93;2.97;;;;;;;;;;4974965;28;20026;-69
2022/05/24 01:43:49;;;;;;;5.32;2.08;;;;;;;;;;4976090;28;20037;-69
2022/05/24 01:46:17;;;;;;;5.35;2.03;;;;;;;;;;4976508;28;20023;-69
2022/05/24 01:49:05;;;;;;;6.72;1.90;;;;;;;;;;4976327;28;20022;-70
2022/05/24 01:51:56;;;;;;;6.35;2.00;;;;;;;;;;4974534;28;20504;-70
2022/05/24 01:54:23;;;;;;;4.78;1.90;;;;;;;;;;4970719;28;20109;-69
2022/05/24 01:57:01;;;;;;;3.30;1.33;;;;;;;;;;4973878;28;20110;-69
2022/05/24 01:59:30;;;;;;;4.57;1.38;;;;;;;;;;4975923;28;20019;-69
2022/05/24 02:01:59;;;;;;;5.18;1.83;;;;;;;;;;4975762;28;20097;-70
2022/05/24 02:04:27;;;;;;;4.05;1.42;;;;;;;;;;4975324;28;20045;-69
2022/05/24 02:07:06;;;;;;;5.75;1.45;;;;;;;;;;4975639;28;20030;-69
2022/05/24 02:09:34;;;;;;;6.22;1.80;;;;;;;;;;4975477;28;20023;-68
2022/05/24 02:12:09;;;;;;;3.78;1.70;;;;;;;;;;4975701;28;20034;-68
2022/05/24 02:14:42;;;;;;;4.75;1.83;;;;;;;;;;4975547;28;20023;-69
2022/05/24 02:17:12;;;;;;;3.88;1.58;;;;;;;;;;4975735;28;20070;-69
2022/05/24 02:19:42;;;;;;;2.80;1.40;;;;;;;;;;4975546;28;20034;-68
2022/05/24 02:22:11;;;;;;;3.83;1.40;;;;;;;;;;4975657;28;20253;-68
2022/05/24 02:24:38;;;;;;;4.90;1.15;;;;;;;;;;4975383;28;20102;-68
2022/05/24 02:27:05;;;;;;;3.92;0.93;;;;;;;;;;4974258;28;20023;-68
2022/05/24 02:29:32;;;;;;;3.78;1.08;;;;;;;;;;4975197;28;20033;-68
2022/05/24 02:32:00;;;;;;;2.58;1.02;;;;;;;;;;4975127;28;20101;-69
2022/05/24 02:34:27;;;;;;;4.03;0.95;;;;;;;;;;4975078;28;20447;-70
2022/05/24 02:36:54;;;;;;;4.85;1.17;;;;;;;;;;4975049;28;20074;-70
2022/05/24 02:39:21;;;;;;;2.10;0.50;;;;;;;;;;4974967;28;20391;-69
2022/05/24 02:41:49;;;;;;;0.85;0.30;;;;;;;;;;4973865;28;20441;-69
2022/05/24 02:44:17;;;;;;;2.10;0.60;;;;;;;;;;4974941;28;20112;-69
2022/05/24 02:46:46;;;;;;;2.08;0.75;;;;;;;;;;4975092;28;20023;-69
2022/05/24 02:49:13;;;;;;;2.05;0.60;;;;;;;;;;4975169;28;20026;-69
2022/05/24 02:51:41;;;;;;;2.33;0.77;;;;;;;;;;4973401;28;20062;-70
2022/05/24 02:54:09;;;;;;;4.60;1.08;;;;;;;;;;4974778;28;20030;-68
2022/05/24 02:56:36;;;;;;;4.60;1.55;;;;;;;;;;4974665;28;20022;-68
2022/05/24 02:59:04;;;;;;;5.72;1.42;;;;;;;;;;4974858;28;20031;-69
2022/05/24 03:01:32;;;;;;;3.80;1.40;;;;;;;;;;4973272;28;20029;-70
2022/05/24 03:04:00;;;;;;;4.20;1.38;;;;;;;;;;4974713;28;20019;-71
2022/05/24 03:06:27;;;;;;;5.28;0.93;;;;;;;;;;4974804;28;20091;-71
2022/05/24 03:14:44;;;;;;;3.38;1.10;;;;;;;;;;4974840;28;20030;-68
2022/05/24 03:17:11;;;;;;;5.50;1.60;;;;;;;;;;4974348;28;20023;-70
2022/05/24 03:19:38;;;;;;;4.25;1.13;;;;;;;;;;4974533;28;20023;-69
2022/05/24 03:22:07;;;;;;;3.03;1.00;;;;;;;;;;4973069;28;20122;-70
2022/05/24 03:24:34;;;;;;;3.10;0.95;;;;;;;;;;4973275;28;20541;-70
2022/05/24 03:27:05;;;;;;;4.13;1.05;;;;;;;;;;4974476;28;20146;-69
2022/05/24 03:29:33;;;;;;;2.85;0.80;;;;;;;;;;4974680;28;20022;-70
2022/05/24 03:32:00;;;;;;;3.15;0.90;;;;;;;;;;4972939;28;20117;-69
2022/05/24 03:35:23;;;;;;;2.63;1.00;;;;;;;;;;5090861;27;20391;-72
2022/05/24 03:37:50;;;;;;;2.88;1.05;;;17.60;99.90;;;;;;5090671;28;20024;-73
2022/05/24 03:40:18;;;;;;;4.90;1.13;;;17.60;99.90;;;;;;5090444;28;20020;-73
2022/05/24 03:42:47;;;;;;;6.38;1.50;;;17.40;99.90;;;;;;5090259;28;20385;-73
2022/05/24 03:45:14;;;;;;;5.10;1.88;;;17.20;99.90;;;;;;5088893;28;20123;-73
2022/05/24 03:47:41;;;;;;;6.55;1.17;;;17.00;99.90;;;;;;5090423;28;20024;-74
2022/05/24 03:50:10;;;;;;;4.18;0.90;;;16.90;99.90;;;;;;5090353;28;20020;-74
2022/05/24 03:52:37;;;;;;;2.90;0.68;;;16.80;99.90;;;;;;5088853;28;20073;-74
2022/05/24 03:55:05;;;;;;;4.53;1.25;;;16.70;99.90;;;;;;5089950;28;20024;-73
2022/05/24 04:00:20;;;;;;;3.60;1.10;;;16.90;99.90;;;;;;5090320;28;20084;-73
2022/05/24 04:02:48;;;;;;;4.30;0.70;;;16.80;99.90;;;;;;5088640;28;20031;-71
2022/05/24 04:05:16;;;;;;;4.85;1.08;;;16.80;99.90;;;;;;5089870;28;20029;-73
2022/05/24 04:07:43;;;;;;;4.00;1.00;;;16.80;99.90;;;;;;5088535;28;20020;-72
2022/05/24 04:10:13;;;;;;;2.58;0.50;;;16.80;99.90;;;;;;5089802;28;20024;-72
2022/05/24 04:12:40;;;;;;;3.25;0.80;;;16.80;99.90;;;;;;5088400;28;20085;-73
2022/05/24 04:15:08;;;;;;;9.00;0.73;;;16.80;99.90;;;;;;5089529;28;20032;-73
2022/05/24 04:17:35;;;;;;;3.78;0.68;;;16.90;99.90;;;;;;5090216;28;20023;-73
2022/05/24 04:20:04;;;;;;;3.85;0.88;;;16.90;99.90;;;;;;5089736;28;20024;-73
2022/05/24 04:22:32;;;;;;;4.78;1.08;;;16.80;99.90;;;;;;5088216;28;20021;-73
2022/05/24 04:25:00;;;;;;;2.97;0.50;;;16.80;99.90;;;;;;5089517;28;20016;-73
2022/05/24 04:27:27;;;;;;;5.53;0.82;;;16.70;99.90;;;;;;5089498;28;20074;-73
2022/05/24 04:29:55;;;;;;;2.88;0.50;;;16.70;99.90;;;;;;5089392;28;20051;-73
2022/05/24 04:32:22;;;;;;;2.20;0.63;;;16.70;99.90;;;;;;5089253;28;20028;-73
2022/05/24 04:34:50;;;;;;;2.80;0.40;;;16.60;99.90;;;;;;5089150;28;20131;-73
2022/05/24 04:37:18;;;;;;;1.55;0.55;;;16.50;99.90;;;;;;5087855;28;20056;-72
2022/05/24 04:39:45;;;;;;;3.65;0.50;;;16.60;99.90;;;;;;5089282;28;20086;-71
2022/05/24 04:42:25;;;;;;;1.70;0.50;;;16.60;99.90;;;;;;5087887;28;20028;-72
2022/05/24 04:44:58;;;;;;;2.33;0.47;;;16.60;99.90;;;;;;5086160;28;20092;-72
2022/05/24 04:47:29;;;;;;;1.85;0.45;;;16.70;99.90;;;;;;5075667;28;20029;-72
2022/05/24 04:50:00;;;;;;;1.60;0.40;;;16.70;99.90;;;;;;5074313;28;20063;-72
2022/05/24 04:52:32;;;;;;;;;;;16.70;99.90;;;;;;5074657;28;20029;-72
2022/05/24 04:54:59;;;;;;;2.38;0.40;;;16.70;99.90;;;;;;5075356;28;20260;-72
2022/05/24 04:57:27;;;;;;;0.90;0.20;;;16.80;99.90;;;;;;5075321;28;20012;-72
2022/05/24 04:59:54;;;;;;;1.90;0.40;;;16.90;99.90;;;;;;5073985;28;20016;-72
2022/05/24 05:02:23;;;;;;;3.30;0.32;;;16.80;99.90;;;;;;5074027;28;20074;-72
2022/05/24 05:04:50;;;;;;;1.95;0.85;;;16.90;99.90;;;;;;5075634;28;20419;-72
2022/05/24 05:07:21;;;;;;;2.58;0.40;;;16.80;99.90;;;;;;5073997;28;20094;-72
2022/05/24 05:09:50;;;;;;;2.88;0.40;;;16.80;99.90;;;;;;5073844;28;20425;-72
2022/05/24 05:12:19;;;;;;;1.73;0.35;;;16.80;99.90;;;;;;5075084;28;20020;-70
2022/05/24 05:14:47;;;;;;;2.88;0.80;;;16.90;99.90;;;;;;5075201;28;20052;-72
2022/05/24 05:17:16;;;;;;;0.85;0.20;;;16.90;99.90;;;;;;5075039;28;20423;-72
2022/05/24 05:19:44;;;;;;;1.08;0.10;;;17.00;99.90;;;;;;5074982;28;20016;-72
2022/05/24 05:22:12;;;;;;;1.27;0.20;;;17.20;99.90;;;;;;5074932;28;20020;-72
2022/05/24 05:24:40;;;;;;;0.65;0.22;;;17.20;99.90;;;;;;5075215;28;20017;-72
2022/05/24 05:27:08;;;;;;;1.15;0.28;;;17.20;99.90;;;;;;5074853;28;20027;-72
2022/05/24 05:32:26;;;;;;;1.23;0.30;;;17.20;99.90;;;;;;5075075;28;20027;-73
2022/05/24 05:34:54;;;;;;;0.65;0.20;;;17.20;99.90;;;;;;5073172;28;20049;-73
2022/05/24 05:37:21;;;;;;;1.05;0.30;;;17.10;99.90;;;;;;5074684;28;20040;-73
2022/05/24 05:39:49;;;;;;;0.93;0.20;;;17.20;99.90;;;;;;5074539;28;20025;-73
2022/05/24 05:42:16;;;;;;;0.30;0.10;;;17.20;99.90;;;;;;5073261;28;20031;-73
2022/05/24 05:44:44;;;;;;;1.27;0.30;;;17.50;99.90;;;;;;5073108;28;20029;-73
2022/05/24 05:47:11;;;;;;;2.00;0.30;;;17.30;99.90;;;;;;5073224;28;20451;-73
2022/05/24 05:49:41;;;;;;;0.98;0.40;;;17.30;99.90;;;;;;5072981;28;20074;-73
2022/05/24 05:52:08;;;;;;;1.63;0.20;;;17.30;99.90;;;;;;5073154;28;20420;-73
2022/05/24 05:54:36;;;;;;;2.03;0.20;;;17.10;99.90;;;;;;5074119;28;20016;-73
2022/05/24 05:57:05;;;;;;;1.85;0.30;;;17.10;99.90;;;;;;5072022;28;20443;-73
2022/05/24 05:59:33;;;;;;;2.92;0.80;;;16.90;99.90;;;;;;5074122;28;20017;-73
2022/05/24 06:02:04;;;;;;;0.57;0.30;;;16.80;99.90;;;;;;5074125;28;20021;-73
2022/05/24 06:04:32;;;;;;;1.48;0.20;;;16.70;99.90;;;;;;5074421;28;20017;-73
2022/05/24 06:07:00;;;;;;;1.95;0.40;;;16.50;99.90;;;;;;5072608;28;20021;-73
2022/05/24 06:09:27;;;;;;;2.53;0.40;;;16.30;99.90;;;;;;5074202;28;20146;-73
2022/05/24 06:11:54;;;;;;;0.40;0.10;;;16.30;99.90;;;;;;5073987;28;20392;-73
2022/05/24 06:14:22;;;;;;;0.60;0.28;;;16.30;99.90;;;;;;5073942;28;20053;-73
2022/05/24 06:16:49;;;;;;;1.23;0.30;;;16.20;99.90;;;;;;5072319;28;20024;-73
2022/05/24 06:19:16;;;;;;;3.60;0.52;;;16.20;99.90;;;;;;5074031;28;20020;-73
2022/05/24 06:21:44;;;;;;;1.05;0.20;;;16.20;99.90;;;;;;5073486;28;20031;-75
2022/05/24 06:24:14;;;;;;;2.42;0.50;;;16.20;99.90;;;;;;5073695;28;20104;-74
2022/05/24 06:26:43;;;;;;;1.08;0.30;;;16.20;99.90;;;;;;5073947;28;20077;-74
2022/05/24 06:29:11;;;;;;;2.38;0.40;;;16.10;99.90;;;;;;5072725;28;20029;-74
2022/05/24 06:31:42;;;;;;;1.20;0.32;;;16.10;99.90;;;;;;5072642;28;20052;-74
2022/05/24 06:34:09;;;;;;;0.95;0.30;;;16.10;99.90;;;;;;5072185;28;20048;-74
2022/05/24 06:36:36;;;;;;;2.45;0.30;;;16.10;99.90;;;;;;5072599;28;20063;-73
2022/05/24 06:39:04;;;;;;;1.00;0.20;;;16.00;99.90;;;;;;5073434;28;20031;-74
2022/05/24 06:41:31;;;;;;;1.55;0.38;;;15.90;99.90;;;;;;5073214;28;20453;-76
2022/05/24 06:43:59;;;;;;;2.03;0.22;;;15.70;99.90;;;;;;5072074;28;20106;-77
2022/05/24 06:46:26;;;;;;;1.00;0.40;;;15.60;99.90;;;;;;5071967;28;20028;-77
2022/05/24 06:48:54;;;;;;;3.20;0.50;;;15.40;99.90;;;;;;5071766;28;20029;-76
2022/05/24 06:51:23;;;;;;;2.58;0.55;;;15.50;99.90;;;;;;5071853;28;20036;-76
2022/05/24 06:53:51;;;;;;;2.20;0.73;;;15.40;99.90;;;;;;5073219;28;20480;-77
2022/05/24 06:56:18;;;;;;;1.83;0.50;;;15.30;99.90;;;;;;5073309;28;20468;-77
2022/05/24 06:58:46;;;;;;;1.83;0.40;;;15.10;99.90;;;;;;5072452;28;20024;-76
2022/05/24 07:03:59;;;;;;;0.60;0.30;;;14.90;99.90;;;;;;5073071;28;20031;-75
2022/05/24 07:06:27;;;;;;;1.98;0.60;;;14.70;99.90;;;;;;5071610;28;20028;-76
2022/05/24 07:08:54;;;;;;;3.67;0.40;;;14.60;99.90;;;;;;5072754;28;20032;-77
2022/05/24 07:11:23;;;;;;;1.38;0.50;;;14.50;99.90;;;;;;5071688;28;20381;-77
2022/05/24 07:13:50;;;;;;;2.78;0.57;;;14.50;99.90;;;;;;5071528;28;20082;-75
2022/05/24 07:16:18;;;;;;;3.30;0.65;;;14.50;99.90;;;;;;5072929;28;20093;-73
2022/05/24 07:18:46;;;;;;;2.53;1.27;;;14.40;99.90;;;;;;5072899;28;20380;-73
2022/05/24 07:21:13;;;;;;;3.95;1.33;;;14.30;99.90;;;;;;5071790;28;20035;-73
2022/05/24 07:23:42;;;;;;;2.60;0.73;;;14.30;99.90;;;;;;5071563;28;20024;-73
2022/05/24 07:26:18;;;;;;;1.63;0.70;;;14.20;99.90;;;;;;5072956;28;20021;-73
2022/05/24 07:28:46;;;;;;;1.70;0.75;;;14.20;99.90;;;;;;5071579;28;20113;-73
2022/05/24 07:31:13;;;;;;;2.58;1.05;;;14.10;99.90;;;;;;5073120;28;20024;-74
2022/05/24 07:33:41;;;;;;;2.83;1.20;;;14.10;99.90;;;;;;5071260;28;20060;-73
2022/05/24 07:36:08;;;;;;;4.60;1.00;;;14.00;99.90;;;;;;5071429;28;20052;-73
2022/05/24 07:38:37;;;;;;;3.63;1.60;;;14.00;99.90;;;;;;5071421;28;20017;-73
2022/05/24 07:46:35;;;;;;;3.88;1.60;;;13.90;99.90;;;;;;5073247;28;20113;-73
2022/05/24 07:49:05;;;;;;;3.15;1.65;;;13.90;99.90;;;;;;5072927;28;20020;-73
2022/05/24 07:51:32;;;;;;;5.55;1.60;;;13.80;99.90;;;;;;5072597;28;20077;-73
2022/05/24 07:53:59;;;;;;;5.78;1.85;;;13.80;99.90;;;;;;5071193;28;20117;-73
2022/05/24 07:56:27;;;;;;;3.40;1.45;;;13.80;99.90;;;;;;5072809;28;20025;-73
2022/05/24 07:58:54;;;;;;;8.30;2.17;;;13.70;99.90;;;;;;5071276;28;20025;-73
2022/05/24 08:01:23;;;;;;;4.85;1.85;;;13.70;99.90;;;;;;5072607;28;20468;-73
2022/05/24 08:03:51;;;;;;;3.53;1.48;;;13.70;99.90;;;;;;5072550;28;20056;-74
2022/05/24 08:06:19;;;;;;;3.45;1.65;;;13.70;99.90;;;;;;5072613;28;20020;-74
2022/05/24 08:08:46;;;;;;;3.85;1.85;;;13.60;99.90;;;;;;5072615;28;20039;-75
2022/05/24 08:11:14;;;;;;;5.30;1.70;;;13.60;99.90;;;;;;5071248;28;20116;-74
2022/05/24 08:13:41;;;;;;;3.38;2.05;;;13.60;99.90;;;;;;5072448;28;20056;-73
2022/05/24 08:16:09;;;;;;;5.40;1.95;;;13.50;99.90;;;;;;5071173;28;20484;-73
2022/05/24 08:18:36;;;;;;;3.95;1.80;;;13.50;99.90;;;;;;5071117;28;20052;-73
2022/05/24 08:21:04;;;;;;;4.03;1.73;;;13.50;99.90;;;;;;5073008;28;20438;-73
2022/05/24 08:23:33;;;;;;;4.13;1.95;;;13.40;99.90;;;;;;5075050;28;20111;-74
2022/05/24 08:26:00;;;;;;;4.13;1.98;;;13.40;99.90;;;;;;5074796;28;20031;-76
2022/05/24 08:28:28;;;;;;;5.15;2.15;;;13.40;99.90;;;;;;5074733;28;20035;-76
2022/05/24 08:30:55;;;;;;;5.78;2.40;;;13.40;99.90;;;;;;5076012;28;20031;-76
2022/05/24 08:33:24;;;;;;;5.97;2.30;;;13.40;99.90;;;;;;5075665;28;20048;-76
2022/05/24 08:35:53;;;;;;;4.80;2.17;;;13.40;99.90;;;;;;5074652;28;20021;-76
2022/05/24 08:38:21;;;;;;;7.30;3.25;;;13.40;99.90;;;;;;5074577;28;20025;-76
2022/05/24 08:40:50;;;;;;;7.20;3.63;;;13.40;99.90;;;;;;5075845;28;20041;-75
2022/05/24 08:43:47;;;;;;;6.63;3.58;;;13.40;99.90;;;;;;5075832;28;20020;-76
2022/05/24 08:49:14;;;;;;;5.32;3.20;;;13.50;99.90;;;;;;5075753;28;20131;-76
2022/05/24 08:52:02;;;;;;;5.93;3.58;;;13.50;99.90;;;;;;5074285;28;20049;-76
2022/05/24 08:54:38;;;;;;;5.55;3.28;;;13.50;99.90;;;;;;5075597;28;20090;-76
2022/05/24 08:57:10;;;;;;;6.05;3.45;;;13.50;99.90;;;;;;5075450;28;20103;-76
2022/05/24 08:59:41;;;;;;;3.92;3.20;;;13.50;99.90;;;;;;5075587;28;20093;-76
2022/05/24 09:02:08;;;;;;;5.00;3.33;;;13.60;99.90;;;;;;5075505;28;20063;-76
2022/05/24 09:04:36;;;;;;;5.28;3.33;;;13.70;99.90;;;;;;5073924;28;20557;-76
2022/05/24 09:07:22;;;;;;;6.13;3.90;;;13.70;99.90;;;;;;5075279;28;20033;-76
2022/05/24 09:10:00;;;;;;;5.53;3.40;;;13.70;99.90;;;;;;5075481;28;20103;-76
2022/05/24 09:12:50;;;;;;;5.35;3.28;;;13.70;99.90;;;;;;5073883;28;20024;-75
2022/05/24 09:15:25;;;;;;;6.65;4.20;;;14.00;99.90;;;;;;5074781;28;20048;-75
2022/05/24 09:18:05;;;;;;;6.93;3.83;;;13.90;99.90;;;;;;5075377;28;20031;-74
2022/05/24 09:20:39;;;;;;;7.63;3.88;;;13.90;99.90;;;;;;5075111;28;20025;-74
2022/05/24 09:23:26;;;;;;;6.57;3.92;;;13.90;99.90;;;;;;5075197;28;20036;-73
2022/05/24 09:26:05;;;;;;;9.75;4.70;;;14.10;99.90;;;;;;5074958;28;20433;-75
2022/05/24 09:28:58;;;;;;;11.05;6.68;;;13.90;99.90;;;;;;5075337;28;20020;-74
2022/05/24 09:31:30;;;;;;;13.50;6.43;;;14.00;99.90;;;;;;5074791;28;20100;-74
2022/05/24 09:34:04;;;;;;;14.73;6.38;;;14.10;99.90;;;;;;5073318;28;20500;-73
2022/05/24 09:36:36;;;;;;;11.48;5.80;;;14.10;99.90;;;;;;5073708;28;20023;-75
2022/05/24 09:39:20;;;;;;;11.05;5.40;;;14.20;99.90;;;;;;5074736;28;20032;-75
2022/05/24 09:42:04;;;;;;;9.55;4.80;;;14.20;99.90;;;;;;5073302;28;20024;-74
2022/05/24 09:45:11;;;;;;;11.38;4.35;;;14.30;99.90;;;;;;5075090;28;20447;-75
2022/05/24 09:47:44;;;;;;;12.10;5.18;;;14.30;99.90;;;;;;5074604;28;20073;-75
2022/05/24 09:50:34;;;;;;;8.88;5.15;;;14.30;99.90;;;;;;5074442;28;20050;-74
2022/05/24 09:53:05;;;;;;;10.45;6.20;;;14.30;99.90;;;;;;5074515;28;20031;-75
2022/05/24 09:55:55;;;;;;;13.75;7.60;;;14.30;99.90;;;;;;5074383;28;20511;-75
2022/05/24 09:58:36;;;;;;;10.63;6.18;;;14.40;99.90;;;;;;5073088;28;20020;-76
2022/05/24 10:01:30;;;;;;;7.85;4.40;;;14.30;99.90;;;;;;5074201;28;20476;-75
2022/05/24 10:04:10;;;;;;;7.50;4.00;;;14.20;99.90;;;;;;5072893;28;20029;-75
2022/05/24 10:06:40;;;;;;;7.93;4.38;;;14.20;99.90;;;;;;5074390;28;20029;-75
2022/05/24 10:09:20;;;;;;;9.70;3.88;;;14.10;99.90;;;;;;5072747;28;20029;-74
2022/05/24 10:11:56;;;;;;;6.80;3.88;;;14.10;99.90;;;;;;5072628;28;20032;-75
2022/05/24 10:14:48;;;;;;;10.25;4.70;;;14.10;99.90;;;;;;5073932;28;20028;-74
2022/05/24 10:17:39;;;;;;;7.68;4.25;;;14.10;99.90;;;;;;5072699;28;20020;-74
2022/05/24 10:20:07;;;;;;;7.57;3.80;;;14.20;99.90;;;;;;5072784;28;20024;-73
2022/05/24 10:22:55;;;;;;;8.48;4.53;;;14.10;99.90;;;;;;5072566;28;20051;-75
2022/05/24 10:25:53;;;;;;;9.95;4.88;;;14.20;99.90;;;;;;5072498;28;20027;-74
2022/05/24 10:28:56;;;;;;;8.65;5.10;;;14.10;99.90;;;;;;5073774;28;20107;-75
2022/05/24 10:31:32;;;;;;;6.60;4.80;;;14.00;99.90;;;;;;5073567;28;20040;-74
2022/05/24 10:40:41;;;;;;;5.47;4.10;;;13.90;99.90;;;;;;5073579;28;20388;-74
2022/05/24 10:43:14;;;;;;;6.40;3.80;;;13.90;99.90;;;;;;5073058;28;20048;-74
2022/05/24 10:46:01;;;;;;;6.45;3.85;;;13.90;99.90;;;;;;5073482;28;20073;-74
2022/05/24 10:48:44;;;;;;;5.22;4.18;;;13.90;99.90;;;;;;5073418;28;20433;-74
2022/05/24 10:51:22;;;;;;;5.95;3.90;;;13.90;99.90;;;;;;5072101;28;20025;-73
2022/05/24 10:54:04;;;;;;;7.32;4.13;;;14.00;99.90;;;;;;5073490;28;20024;-73
2022/05/24 10:56:52;;;;;;;7.22;4.75;;;13.90;99.90;;;;;;5073264;28;20020;-73
2022/05/24 10:59:45;;;;;;;5.63;3.85;;;14.00;99.90;;;;;;5073467;28;20526;-73
2022/05/24 11:02:39;;;;;;;6.10;4.18;;;14.00;99.90;;;;;;5073297;28;20104;-73
2022/05/24 11:05:16;;;;;;;5.55;4.00;;;14.00;99.90;;;;;;5073062;28;20024;-73
2022/05/24 11:07:45;;;;;;;8.90;6.03;;;13.90;99.90;;;;;;5073581;28;20530;-74
2022/05/24 11:10:34;;;;;;;9.98;5.80;;;13.90;99.90;;;;;;5073035;28;20024;-73
2022/05/24 11:13:10;;;;;;;11.10;7.72;;;13.80;99.90;;;;;;5071805;28;20086;-74
2022/05/24 11:16:00;;;;;;;9.50;7.63;;;13.80;99.90;;;;;;5073043;28;20058;-73
2022/05/24 11:18:28;;;;;;;10.43;8.55;;;13.70;99.90;;;;;;5073024;28;20017;-74
2022/05/24 11:20:58;;;;;;;13.38;10.45;;;13.60;99.90;;;;;;5072946;28;20540;-74
2022/05/24 11:23:36;;;;;;;17.30;13.47;;;13.50;99.90;;;;;;5072950;28;20438;-74
2022/05/24 11:26:16;;;;;;;15.50;13.23;;;13.50;99.90;;;;;;5071626;28;20249;-74
2022/05/24 11:28:49;;;;;;;15.15;11.02;;;13.40;99.90;;;;;;5071529;28;20024;-73
2022/05/24 11:31:28;;;;;;;13.32;10.50;;;13.40;99.90;;;;;;5071398;28;20507;-74
2022/05/24 11:33:57;;;;;;;13.13;10.35;;;13.30;99.90;;;;;;5072912;28;20056;-73
2022/05/24 11:36:36;;;;;;;12.80;10.35;;;13.30;99.90;;;;;;5072992;28;20025;-74
2022/05/24 11:39:24;;;;;;;11.40;8.77;;;13.30;99.90;;;;;;5071491;28;20024;-74
2022/05/24 11:42:33;;;;;;;11.15;8.20;;;13.20;99.90;;;;;;5073365;28;20457;-74
2022/05/24 11:45:29;;;;;;;12.70;8.50;;;13.10;99.90;;;;;;5072756;28;20384;-74
2022/05/24 11:47:58;;;;;;;13.05;7.47;;;13.00;99.90;;;;;;5072590;28;20036;-75
2022/05/24 11:50:32;;;;;;;13.27;9.02;;;13.00;99.90;;;;;;5072683;28;20028;-75
2022/05/24 11:53:31;;;;;;;11.02;7.93;;;12.90;99.90;;;;;;5072903;28;20469;-74
2022/05/24 11:56:00;;;;;;;9.43;6.88;;;12.90;99.90;;;;;;5074547;28;20021;-74
2022/05/24 11:58:33;;;;;;;9.55;7.57;;;12.80;99.90;;;;;;5076992;28;20024;-74
2022/05/24 12:01:08;;;;;;;9.40;7.13;;;12.70;99.90;;;;;;5075293;28;20021;-74
2022/05/24 12:09:24;;;;;;;9.57;8.18;;;12.70;99.90;;;;;;5076463;28;20086;-74
2022/05/24 12:12:18;;;;;;;15.25;8.60;;;12.70;99.90;;;;;;5075085;28;20020;-73
2022/05/24 12:14:46;;;;;;;11.00;7.80;;;12.60;99.90;;;;;;5076268;28;20120;-73
2022/05/24 12:17:16;;;;;;;13.60;8.90;;;12.60;99.90;;;;;;5076315;28;20024;-74
2022/05/24 12:19:48;;;;;;;10.02;8.15;;;12.60;99.90;;;;;;5076210;28;20024;-74
2022/05/24 12:22:33;;;;;;;11.00;7.60;;;12.50;99.90;;;;;;5076290;28;20391;-74
2022/05/24 12:25:03;;;;;;;9.35;7.50;;;12.50;99.90;;;;;;5076195;28;20467;-74
2022/05/24 12:27:50;;;;;;;;;;;12.40;99.90;;;;;;5076567;28;20029;-73
2022/05/24 12:30:32;;;;;;;8.80;7.60;;;12.40;99.90;;;;;;5076061;28;19912;-73
2022/05/24 12:33:26;;;;;;;11.38;8.52;;;12.40;99.90;;;;;;5075945;28;20021;-73
2022/05/24 12:36:08;;;;;;;10.15;7.72;;;12.30;99.90;;;;;;5075954;28;20480;-73
2022/05/24 12:38:37;;;;;;;11.82;8.68;;;12.30;99.90;;;;;;5076277;28;20078;-73
2022/05/24 12:41:41;;;;;;;14.02;9.02;;;12.30;99.90;;;;;;5074568;28;20024;-73
2022/05/24 12:44:18;;;;;;;11.98;8.80;;;12.40;99.90;;;;;;5017390;28;20056;-73
2022/05/24 12:46:56;;;;;;;10.98;9.20;;;12.40;99.90;;;;;;5071510;28;20028;-73
2022/05/24 12:49:27;;;;;;;13.40;9.68;;;12.50;99.90;;;;;;5075754;28;20116;-73
2022/05/24 12:52:03;;;;;;;11.60;8.43;;;12.50;99.90;;;;;;5075661;28;20020;-73
2022/05/24 12:54:33;;;;;;;15.23;9.32;;;12.60;99.90;;;;;;5075894;28;20473;-73
2022/05/24 12:57:05;;;;;;;14.07;8.88;;;12.70;99.90;;;;;;5074351;28;20028;-73
2022/05/24 12:59:40;;;;;;;11.52;8.63;;;12.80;99.90;;;;;;5075497;28;20104;-73
2022/05/24 13:02:29;;;;;;;12.00;8.15;;;12.80;99.90;;;;;;5075775;28;20020;-73
2022/05/24 13:05:23;;;;;;;10.25;7.13;;;12.90;99.90;;;;;;5075247;28;20020;-73
2022/05/24 13:07:54;;;;;;;11.73;7.05;;;12.90;99.90;;;;;;5067937;28;20040;-73
2022/05/24 13:10:24;;;;;;;11.18;6.80;;;12.90;99.90;;;;;;5075387;28;20491;-73
2022/05/24 13:13:00;;;;;;;11.02;6.47;;;12.90;99.90;;;;;;5073941;28;20025;-73
2022/05/24 13:15:35;;;;;;;10.32;7.45;;;12.90;99.90;;;;;;5075185;28;20504;-73
2022/05/24 13:18:07;;;;;;;9.80;7.57;;;12.90;99.90;;;;;;5074003;28;20115;-74
2022/05/24 13:20:48;;;;;;;11.25;7.22;;;12.80;99.90;;;;;;5073819;28;20023;-74
2022/05/24 13:23:15;;;;;;;;;;;12.80;99.90;;;;;;5075582;28;20020;-74
2022/05/24 13:25:53;;;;;;;14.82;12.35;;;12.90;99.90;;;;;;5075249;28;20275;-74
2022/05/24 13:28:51;;;;;;;21.48;18.08;;;12.90;99.90;;;;;;5073768;28;20070;-75
2022/05/24 13:34:35;;;;;;;13.18;8.27;;;12.70;99.90;;;;;;5074758;28;20051;-73
2022/05/24 13:37:07;;;;;;;14.65;9.48;;;12.70;99.90;;;;;;5075341;28;20025;-73
2022/05/24 13:39:44;;;;;;;11.15;8.13;;;12.60;99.90;;;;;;5073596;28;20059;-73
2022/05/24 13:42:31;;;;;;;12.07;8.82;;;12.60;99.90;;;;;;5074808;28;20013;-73
2022/05/24 13:45:15;;;;;;;12.00;9.25;;;12.60;99.90;;;;;;5073469;28;20128;-73
2022/05/24 13:47:45;;;;;;;10.90;9.65;;;12.70;99.90;;;;;;5074815;28;20021;-73
2022/05/24 13:50:30;;;;;;;11.75;9.65;;;12.70;99.90;;;;;;5074870;28;20069;-72
2022/05/24 13:53:26;;;;;;;10.68;8.73;;;12.80;99.90;;;;;;5073376;28;20086;-73
2022/05/24 13:56:03;;;;;;;11.55;9.10;;;12.80;99.90;;;;;;5074456;28;20037;-73
2022/05/24 13:58:33;;;;;;;12.57;10.10;;;12.80;99.90;;;;;;5073109;28;20066;-74
2022/05/24 14:01:08;;;;;;;13.35;8.65;;;12.80;99.90;;;;;;5075013;28;20056;-73
2022/05/24 14:03:41;;;;;;;11.02;8.80;;;12.70;99.90;;;;;;5072960;28;20054;-73
2022/05/24 14:06:12;;;;;;;11.35;10.18;;;12.60;99.90;;;;;;5074244;28;20048;-73
2022/05/24 14:08:42;;;;;;;11.80;8.68;;;12.60;99.90;;;;;;5074289;28;20036;-73
2022/05/24 14:11:13;;;;;;;11.02;9.98;;;12.50;99.90;;;;;;5072816;28;20024;-73
2022/05/24 14:13:45;;;;;;;13.57;10.75;;;12.50;99.90;;;;;;5074053;28;20067;-73
2022/05/24 14:16:14;;;;;;;13.30;10.38;;;12.50;99.90;;;;;;5072712;28;20500;-74
2022/05/24 14:18:42;;;;;;;15.85;10.05;;;12.50;99.90;;;;;;5073392;28;20171;-73
2022/05/24 14:21:10;;;;;;;11.38;9.75;;;12.40;99.90;;;;;;5072696;28;20052;-74
2022/05/24 14:23:38;;;;;;;11.73;10.40;;;12.40;99.90;;;;;;5072625;28;20378;-74